Back to Top

Language: 

My Weather Underground Personal Weather Station Historical Data with Graphs...

Delerius Weather Station Historical Data
Daily Summary for October 25, 2017 Units:  English    Metric   Both
« Previous Day
Next Day »
Daily Weekly Monthly Yearly Custom
  High: Low: Average:
Temperature: 61.2 °F 49.8 °F 55.3 °F
Dew Point: 57.1 °F 46.6 °F 50.2 °F
Humidity: 92 % 69 % 83 %
Wind Speed: 16.0 mph 0.0 mph 6.8 mph
Wind Gust: 28.0 mph - -
Wind:- - WSW
Pressure: 30.18 in 29.79 in -
Precipitation: 0.01 in    
Historical Graphs
 
 
Tabular Data for October 25, 2017
Time Temperature Dew Point Pressure Wind Wind Speed Wind Gust Humidity Rainfall Rate (Hourly) solar Conditions
00:00 61.2 °F 56.9 °F 29.83 in SSW 13.0 mph 20.0 mph 86 % 0.00 in 0 W/m2
00:05 61.0 °F 57.1 °F 29.82 in SSW 14.0 mph 21.0 mph 87 % 0.00 in 0 W/m2
00:10 60.8 °F 56.9 °F 29.82 in SSW 15.0 mph 23.0 mph 87 % 0.00 in 0 W/m2
00:15 60.6 °F 56.7 °F 29.82 in SW 12.0 mph 21.0 mph 87 % 0.00 in 0 W/m2
00:20 60.6 °F 56.7 °F 29.83 in SSW 9.0 mph 16.0 mph 87 % 0.00 in 0 W/m2
00:25 60.6 °F 56.7 °F 29.82 in SW 12.0 mph 20.0 mph 87 % 0.00 in 0 W/m2
00:30 60.6 °F 56.4 °F 29.82 in SW 13.0 mph 25.0 mph 86 % 0.00 in 0 W/m2
00:35 60.6 °F 56.4 °F 29.82 in SSW 10.0 mph 14.0 mph 86 % 0.00 in 0 W/m2
00:40 60.8 °F 56.3 °F 29.82 in SSW 14.0 mph 24.0 mph 85 % 0.00 in 0 W/m2
00:45 60.8 °F 56.3 °F 29.82 in SW 10.0 mph 15.0 mph 85 % 0.00 in 0 W/m2
00:55 60.8 °F 56.3 °F 29.82 in SSW 10.0 mph 14.0 mph 85 % 0.00 in 0 W/m2
01:00 60.8 °F 56.3 °F 29.81 in SSW 14.0 mph 20.0 mph 85 % 0.00 in 0 W/m2
01:05 60.8 °F 56.3 °F 29.81 in SSW 12.0 mph 20.0 mph 85 % 0.00 in 0 W/m2
01:10 61.0 °F 56.4 °F 29.81 in SSW 13.0 mph 25.0 mph 85 % 0.00 in 0 W/m2
01:15 60.8 °F 56.3 °F 29.81 in SSW 10.0 mph 15.0 mph 85 % 0.00 in 0 W/m2
01:20 60.6 °F 56.1 °F 29.82 in SSW 11.0 mph 20.0 mph 85 % 0.00 in 0 W/m2
01:25 60.6 °F 56.1 °F 29.81 in SW 10.0 mph 16.0 mph 85 % 0.00 in 0 W/m2
01:30 60.6 °F 56.1 °F 29.81 in SSW 7.0 mph 10.0 mph 85 % 0.00 in 0 W/m2
01:31 60.6 °F 56.1 °F 29.81 in SSW 7.0 mph 12.0 mph 85 % 0.00 in 0 W/m2
01:36 60.6 °F 56.1 °F 29.81 in SSW 11.0 mph 20.0 mph 85 % 0.00 in 0 W/m2
01:41 60.6 °F 56.1 °F 29.81 in SSW 12.0 mph 23.0 mph 85 % 0.00 in 0 W/m2
01:46 60.6 °F 55.8 °F 29.81 in SSW 9.0 mph 18.0 mph 84 % 0.00 in 0 W/m2
01:51 60.8 °F 55.9 °F 29.81 in SW 8.0 mph 12.0 mph 84 % 0.00 in 0 W/m2
01:56 60.8 °F 55.9 °F 29.81 in SW 16.0 mph 22.0 mph 84 % 0.00 in 0 W/m2
02:01 61.0 °F 55.8 °F 29.81 in SW 12.0 mph 21.0 mph 83 % 0.00 in 0 W/m2
02:06 61.2 °F 56.0 °F 29.80 in SW 10.0 mph 18.0 mph 83 % 0.00 in 0 W/m2
02:11 61.2 °F 56.0 °F 29.80 in SW 16.0 mph 28.0 mph 83 % 0.00 in 0 W/m2
02:16 61.0 °F 55.8 °F 29.80 in WSW 9.0 mph 16.0 mph 83 % 0.00 in 0 W/m2
02:21 60.6 °F 55.8 °F 29.79 in SW 13.0 mph 20.0 mph 84 % 0.00 in 0 W/m2
02:26 60.3 °F 55.7 °F 29.80 in SW 11.0 mph 18.0 mph 85 % 0.00 in 0 W/m2
02:31 60.1 °F 55.6 °F 29.80 in WSW 8.0 mph 19.0 mph 85 % 0.00 in 0 W/m2
02:36 59.7 °F 55.5 °F 29.80 in SW 9.0 mph 14.0 mph 86 % 0.00 in 0 W/m2
02:41 59.5 °F 55.7 °F 29.80 in SW 10.0 mph 18.0 mph 87 % 0.00 in 0 W/m2
02:46 59.4 °F 55.5 °F 29.80 in SW 13.0 mph 19.0 mph 87 % 0.00 in 0 W/m2
02:51 59.2 °F 55.3 °F 29.80 in SW 14.0 mph 26.0 mph 87 % 0.00 in 0 W/m2
02:56 59.2 °F 55.3 °F 29.80 in WSW 9.0 mph 24.0 mph 87 % 0.00 in 0 W/m2
03:01 59.2 °F 55.3 °F 29.81 in WSW 14.0 mph 20.0 mph 87 % 0.00 in 0 W/m2
03:06 59.2 °F 55.3 °F 29.81 in WSW 10.0 mph 18.0 mph 87 % 0.00 in 0 W/m2
03:11 59.2 °F 55.3 °F 29.82 in WSW 11.0 mph 16.0 mph 87 % 0.00 in 0 W/m2
03:16 59.2 °F 55.3 °F 29.82 in West 12.0 mph 22.0 mph 87 % 0.00 in 0 W/m2
03:21 59.2 °F 55.3 °F 29.84 in WNW 14.0 mph 26.0 mph 87 % 0.01 in 0 W/m2
03:27 58.3 °F 54.4 °F 29.85 in NW 12.0 mph 20.0 mph 87 % 0.01 in 0 W/m2
03:32 57.2 °F 53.7 °F 29.85 in NW 13.0 mph 19.0 mph 88 % 0.01 in 0 W/m2
03:37 56.5 °F 53.3 °F 29.85 in WNW 9.0 mph 19.0 mph 89 % 0.01 in 0 W/m2
03:42 55.9 °F 52.7 °F 29.86 in WNW 11.0 mph 19.0 mph 89 % 0.01 in 0 W/m2
03:47 55.6 °F 52.7 °F 29.86 in NW 11.0 mph 16.0 mph 90 % 0.01 in 0 W/m2
03:52 55.2 °F 52.6 °F 29.86 in WNW 10.0 mph 15.0 mph 91 % 0.01 in 0 W/m2
03:57 55.0 °F 52.5 °F 29.87 in WNW 10.0 mph 16.0 mph 91 % 0.01 in 0 W/m2
04:02 54.7 °F 52.1 °F 29.87 in WNW 8.0 mph 14.0 mph 91 % 0.01 in 0 W/m2
04:07 54.7 °F 52.1 °F 29.87 in West 7.0 mph 12.0 mph 91 % 0.01 in 0 W/m2
04:12 54.5 °F 51.9 °F 29.87 in West 11.0 mph 15.0 mph 91 % 0.01 in 0 W/m2
04:17 54.3 °F 52.0 °F 29.87 in WNW 10.0 mph 16.0 mph 92 % 0.01 in 0 W/m2
04:22 54.0 °F 51.4 °F 29.87 in WNW 11.0 mph 16.0 mph 91 % 0.00 in 0 W/m2
04:27 54.0 °F 51.4 °F 29.88 in WNW 10.0 mph 16.0 mph 91 % 0.00 in 0 W/m2
04:32 53.8 °F 51.2 °F 29.87 in WNW 9.0 mph 14.0 mph 91 % 0.00 in 0 W/m2
04:37 53.8 °F 51.2 °F 29.88 in WNW 10.0 mph 16.0 mph 91 % 0.00 in 0 W/m2
04:47 53.6 °F 51.0 °F 29.88 in WNW 10.0 mph 16.0 mph 91 % 0.00 in 0 W/m2
04:52 53.4 °F 50.6 °F 29.88 in WNW 10.0 mph 16.0 mph 90 % 0.00 in 0 W/m2
04:57 53.4 °F 50.6 °F 29.88 in WNW 11.0 mph 15.0 mph 90 % 0.00 in 0 W/m2
05:02 53.2 °F 50.4 °F 29.88 in WNW 8.0 mph 11.0 mph 90 % 0.00 in 0 W/m2
05:07 53.2 °F 50.4 °F 29.89 in WNW 10.0 mph 14.0 mph 90 % 0.00 in 0 W/m2
05:12 53.2 °F 50.4 °F 29.89 in West 12.0 mph 18.0 mph 90 % 0.00 in 0 W/m2
05:17 53.2 °F 50.4 °F 29.89 in West 12.0 mph 20.0 mph 90 % 0.00 in 0 W/m2
05:22 53.4 °F 50.6 °F 29.89 in West 10.0 mph 14.0 mph 90 % 0.00 in 0 W/m2
05:27 53.2 °F 50.4 °F 29.89 in West 12.0 mph 19.0 mph 90 % 0.00 in 0 W/m2
05:32 53.4 °F 50.6 °F 29.89 in West 11.0 mph 18.0 mph 90 % 0.00 in 0 W/m2
05:37 53.4 °F 50.6 °F 29.90 in West 13.0 mph 18.0 mph 90 % 0.00 in 0 W/m2
05:42 53.8 °F 50.9 °F 29.90 in WNW 10.0 mph 19.0 mph 90 % 0.00 in 0 W/m2
05:47 54.0 °F 51.1 °F 29.91 in WNW 10.0 mph 15.0 mph 90 % 0.00 in 0 W/m2
05:52 54.0 °F 51.1 °F 29.91 in WNW 9.0 mph 14.0 mph 90 % 0.00 in 0 W/m2
05:57 54.0 °F 51.4 °F 29.91 in WNW 10.0 mph 19.0 mph 91 % 0.00 in 0 W/m2
06:02 53.8 °F 51.2 °F 29.91 in WNW 10.0 mph 19.0 mph 91 % 0.00 in 0 W/m2
06:07 53.8 °F 51.5 °F 29.91 in WNW 10.0 mph 14.0 mph 92 % 0.00 in 0 W/m2
06:12 53.4 °F 51.2 °F 29.91 in West 9.0 mph 14.0 mph 92 % 0.00 in 0 W/m2
06:18 53.2 °F 51.0 °F 29.92 in WNW 7.0 mph 12.0 mph 92 % 0.00 in 0 W/m2
06:23 53.1 °F 50.5 °F 29.92 in West 8.0 mph 13.0 mph 91 % 0.00 in 0 W/m2
06:28 53.1 °F 50.5 °F 29.92 in West 10.0 mph 14.0 mph 91 % 0.00 in 0 W/m2
06:33 52.9 °F 50.3 °F 29.92 in West 8.0 mph 15.0 mph 91 % 0.00 in 0 W/m2
06:38 52.7 °F 49.8 °F 29.93 in WNW 9.0 mph 15.0 mph 90 % 0.00 in 0 W/m2
06:43 52.7 °F 49.5 °F 29.93 in WNW 6.0 mph 11.0 mph 89 % 0.00 in 0 W/m2
06:48 52.5 °F 49.4 °F 29.93 in WNW 7.0 mph 12.0 mph 89 % 0.00 in 0 W/m2
06:53 52.5 °F 49.4 °F 29.93 in WNW 6.0 mph 12.0 mph 89 % 0.00 in 0 W/m2
06:58 52.5 °F 49.4 °F 29.94 in WNW 8.0 mph 13.0 mph 89 % 0.00 in 0 W/m2
07:03 52.5 °F 49.1 °F 29.94 in WNW 8.0 mph 13.0 mph 88 % 0.00 in 0 W/m2
07:08 52.3 °F 48.9 °F 29.95 in WNW 6.0 mph 9.0 mph 88 % 0.00 in 0 W/m2
07:13 52.3 °F 48.9 °F 29.95 in WNW 10.0 mph 15.0 mph 88 % 0.00 in 0 W/m2
07:18 52.7 °F 49.2 °F 29.95 in WNW 13.0 mph 20.0 mph 88 % 0.00 in 0 W/m2
07:23 52.9 °F 49.1 °F 29.95 in West 11.0 mph 16.0 mph 87 % 0.00 in 0 W/m2
07:28 52.9 °F 49.1 °F 29.95 in West 10.0 mph 19.0 mph 87 % 0.00 in 0 W/m2
07:33 52.9 °F 49.1 °F 29.95 in West 12.0 mph 20.0 mph 87 % 0.00 in 0 W/m2
07:38 52.9 °F 48.8 °F 29.96 in West 11.0 mph 20.0 mph 86 % 0.00 in 0 W/m2
07:43 52.9 °F 48.8 °F 29.96 in West 9.0 mph 15.0 mph 86 % 0.00 in 0 W/m2
07:48 52.7 °F 48.6 °F 29.96 in West 4.0 mph 9.0 mph 86 % 0.00 in 0 W/m2
07:53 52.5 °F 48.8 °F 29.97 in West 6.0 mph 10.0 mph 87 % 0.00 in 0 W/m2
07:58 52.5 °F 48.5 °F 29.97 in West 6.0 mph 12.0 mph 86 % 0.00 in 7 W/m2
08:03 52.3 °F 48.3 °F 29.98 in WNW 3.0 mph 6.0 mph 86 % 0.00 in 9 W/m2
08:08 52.3 °F 48.3 °F 29.98 in WSW 2.0 mph 7.0 mph 86 % 0.00 in 11 W/m2
08:13 52.3 °F 48.3 °F 29.98 in SE 2.0 mph 5.0 mph 86 % 0.00 in 14 W/m2
08:18 52.3 °F 48.6 °F 29.99 in ESE 2.0 mph 5.0 mph 87 % 0.00 in 28 W/m2
08:23 52.3 °F 48.6 °F 29.99 in SE 1.0 mph 2.0 mph 87 % 0.00 in 40 W/m2
08:28 52.5 °F 48.8 °F 30.00 in Calm   1.0 mph 87 % 0.00 in 51 W/m2
08:33 52.7 °F 48.9 °F 30.00 in SSE 1.0 mph 4.0 mph 87 % 0.00 in 21 W/m2
08:38 52.9 °F 49.1 °F 30.00 in WSW 3.0 mph 8.0 mph 87 % 0.00 in 26 W/m2
08:43 52.9 °F 48.8 °F 30.01 in West 2.0 mph 5.0 mph 86 % 0.00 in 14 W/m2
08:48 53.1 °F 49.3 °F 30.01 in WSW 3.0 mph 7.0 mph 87 % 0.00 in 18 W/m2
08:54 53.1 °F 49.3 °F 30.01 in SW 2.0 mph 6.0 mph 87 % 0.00 in 23 W/m2
08:59 53.1 °F 49.3 °F 30.01 in West 3.0 mph 7.0 mph 87 % 0.00 in 30 W/m2
09:04 53.1 °F 49.3 °F 30.01 in Calm   1.0 mph 87 % 0.00 in 40 W/m2
09:09 53.1 °F 49.3 °F 30.01 in SW 1.0 mph 5.0 mph 87 % 0.00 in 56 W/m2
09:14 53.2 °F 49.5 °F 30.02 in SW 1.0 mph 4.0 mph 87 % 0.00 in 28 W/m2
09:19 53.2 °F 49.5 °F 30.02 in Calm   1.0 mph 87 % 0.00 in 35 W/m2
09:22 53.2 °F 49.5 °F 30.03 in Calm   2.0 mph 87 % 0.00 in 32 W/m2
09:27 53.2 °F 49.5 °F 30.03 in Calm     87 % 0.00 in 28 W/m2
09:32 53.4 °F 49.6 °F 30.03 in West 2.0 mph 5.0 mph 87 % 0.00 in 30 W/m2
09:38 53.4 °F 49.6 °F 30.03 in WSW 5.0 mph 8.0 mph 87 % 0.00 in 33 W/m2
09:43 53.4 °F 49.6 °F 30.03 in SW 5.0 mph 8.0 mph 87 % 0.00 in 56 W/m2
09:48 53.6 °F 49.8 °F 30.04 in WSW 3.0 mph 7.0 mph 87 % 0.00 in 132 W/m2
09:53 54.0 °F 50.2 °F 30.04 in WSW 5.0 mph 7.0 mph 87 % 0.00 in 158 W/m2
09:58 54.1 °F 50.0 °F 30.04 in WSW 4.0 mph 8.0 mph 86 % 0.00 in 179 W/m2
10:03 54.5 °F 50.4 °F 30.04 in West 6.0 mph 8.0 mph 86 % 0.00 in 183 W/m2
10:08 54.7 °F 50.3 °F 30.04 in West 9.0 mph 13.0 mph 85 % 0.00 in 148 W/m2
10:13 54.7 °F 49.9 °F 30.05 in West 8.0 mph 14.0 mph 84 % 0.00 in 216 W/m2
10:18 54.9 °F 50.1 °F 30.05 in West 10.0 mph 15.0 mph 84 % 0.00 in 193 W/m2
10:20 54.9 °F 50.1 °F 30.05 in West 9.0 mph 14.0 mph 84 % 0.00 in 225 W/m2
10:24 55.0 °F 50.3 °F 30.05 in West 8.0 mph 14.0 mph 84 % 0.00 in 294 W/m2
10:29 55.2 °F 50.1 °F 30.04 in WSW 13.0 mph 22.0 mph 83 % 0.00 in 214 W/m2
10:34 55.2 °F 49.8 °F 30.04 in West 12.0 mph 19.0 mph 82 % 0.00 in 149 W/m2
10:39 55.2 °F 49.8 °F 30.04 in West 10.0 mph 15.0 mph 82 % 0.00 in 156 W/m2
10:44 55.0 °F 49.6 °F 30.05 in West 9.0 mph 13.0 mph 82 % 0.00 in 155 W/m2
10:49 55.2 °F 49.8 °F 30.05 in West 7.0 mph 15.0 mph 82 % 0.00 in 181 W/m2
10:54 55.2 °F 49.8 °F 30.06 in West 11.0 mph 16.0 mph 82 % 0.00 in 151 W/m2
10:59 55.4 °F 50.0 °F 30.06 in West 6.0 mph 9.0 mph 82 % 0.00 in 128 W/m2
11:04 55.4 °F 49.7 °F 30.06 in West 8.0 mph 11.0 mph 81 % 0.00 in 167 W/m2
11:10 55.6 °F 49.9 °F 30.06 in WSW 8.0 mph 8.0 mph 81 % 0.00 in 183 W/m2
11:16 55.8 °F 49.7 °F 30.06 in WSW 12.0 mph 12.0 mph 80 % 0.00 in 214 W/m2
11:21 56.1 °F 50.0 °F 30.06 in West 10.0 mph 14.0 mph 80 % 0.00 in 413 W/m2
11:26 56.3 °F 50.2 °F 30.06 in West 10.0 mph 12.0 mph 80 % 0.00 in 383 W/m2
11:31 56.8 °F 50.4 °F 30.06 in WNW 12.0 mph 13.0 mph 79 % 0.00 in 390 W/m2
11:36 56.8 °F 50.1 °F 30.06 in West 11.0 mph 22.0 mph 78 % 0.00 in 327 W/m2
11:41 56.8 °F 50.1 °F 30.07 in WSW 10.0 mph 18.0 mph 78 % 0.00 in 178 W/m2
11:46 56.7 °F 49.5 °F 30.07 in West 12.0 mph 21.0 mph 77 % 0.00 in 153 W/m2
11:51 56.5 °F 49.7 °F 30.07 in West 13.0 mph 20.0 mph 78 % 0.00 in 165 W/m2
11:56 56.1 °F 49.4 °F 30.08 in West 13.0 mph 22.0 mph 78 % 0.00 in 153 W/m2
12:01 55.9 °F 49.5 °F 30.08 in West 11.0 mph 18.0 mph 79 % 0.00 in 137 W/m2
12:06 55.9 °F 49.5 °F 30.08 in West 9.0 mph 15.0 mph 79 % 0.00 in 149 W/m2
12:11 55.9 °F 49.9 °F 30.08 in West 10.0 mph 18.0 mph 80 % 0.00 in 174 W/m2
12:16 55.9 °F 49.9 °F 30.08 in West 10.0 mph 14.0 mph 80 % 0.00 in 155 W/m2
12:21 55.9 °F 49.9 °F 30.08 in West 10.0 mph 19.0 mph 80 % 0.00 in 151 W/m2
12:26 55.9 °F 49.5 °F 30.08 in WSW 8.0 mph 14.0 mph 79 % 0.00 in 149 W/m2
12:31 55.9 °F 49.5 °F 30.08 in West 8.0 mph 13.0 mph 79 % 0.00 in 156 W/m2
12:36 56.1 °F 49.7 °F 30.09 in West 8.0 mph 13.0 mph 79 % 0.00 in 264 W/m2
12:41 56.3 °F 49.9 °F 30.08 in West 7.0 mph 14.0 mph 79 % 0.00 in 250 W/m2
12:46 56.7 °F 50.2 °F 30.08 in West 6.0 mph 12.0 mph 79 % 0.00 in 448 W/m2
12:51 57.4 °F 50.9 °F 30.08 in West 9.0 mph 18.0 mph 79 % 0.00 in 526 W/m2
12:56 57.9 °F 50.4 °F 30.08 in West 10.0 mph 16.0 mph 76 % 0.00 in 480 W/m2
13:01 58.3 °F 50.4 °F 30.08 in West 13.0 mph 22.0 mph 75 % 0.00 in 262 W/m2
13:06 58.5 °F 50.6 °F 30.08 in West 9.0 mph 20.0 mph 75 % 0.00 in 241 W/m2
13:11 58.5 °F 50.6 °F 30.08 in WNW 13.0 mph 21.0 mph 75 % 0.00 in 206 W/m2
13:16 58.6 °F 50.4 °F 30.08 in West 14.0 mph 22.0 mph 74 % 0.00 in 570 W/m2
13:21 58.8 °F 50.5 °F 30.08 in West 14.0 mph 23.0 mph 74 % 0.00 in 469 W/m2
13:26 59.0 °F 50.0 °F 30.08 in West 16.0 mph 24.0 mph 72 % 0.00 in 267 W/m2
13:31 58.6 °F 49.6 °F 30.08 in West 16.0 mph 27.0 mph 72 % 0.00 in 250 W/m2
13:36 58.1 °F 49.5 °F 30.08 in West 9.0 mph 15.0 mph 73 % 0.00 in 258 W/m2
13:42 58.1 °F 49.9 °F 30.08 in West 8.0 mph 21.0 mph 74 % 0.00 in 114 W/m2
13:47 57.9 °F 49.7 °F 30.08 in West 12.0 mph 22.0 mph 74 % 0.00 in 339 W/m2
13:52 58.1 °F 49.9 °F 30.08 in West 11.0 mph 19.0 mph 74 % 0.00 in 411 W/m2
13:57 58.5 °F 50.2 °F 30.08 in West 12.0 mph 21.0 mph 74 % 0.00 in 413 W/m2
14:02 58.5 °F 49.8 °F 30.08 in WSW 11.0 mph 19.0 mph 73 % 0.00 in 288 W/m2
14:07 58.5 °F 49.8 °F 30.08 in West 10.0 mph 16.0 mph 73 % 0.00 in 172 W/m2
14:12 58.3 °F 49.7 °F 30.08 in West 12.0 mph 20.0 mph 73 % 0.00 in 297 W/m2
14:18 58.1 °F 50.2 °F 30.08 in West 11.0 mph 12.0 mph 75 % 0.00 in 404 W/m2
14:23 58.3 °F 49.7 °F 30.08 in West 13.0 mph 21.0 mph 73 % 0.00 in 392 W/m2
14:28 58.6 °F 50.0 °F 30.08 in West 12.0 mph 19.0 mph 73 % 0.00 in 446 W/m2
14:33 59.0 °F 50.4 °F 30.08 in West 11.0 mph 22.0 mph 73 % 0.00 in 464 W/m2
14:43 59.5 °F 50.5 °F 30.08 in West 14.0 mph 22.0 mph 72 % 0.00 in 461 W/m2
14:48 59.4 °F 50.3 °F 30.09 in West 15.0 mph 25.0 mph 72 % 0.00 in 330 W/m2
14:53 58.8 °F 50.2 °F 30.09 in WSW 14.0 mph 18.0 mph 73 % 0.00 in 130 W/m2
14:58 58.3 °F 50.0 °F 30.09 in West 11.0 mph 20.0 mph 74 % 0.00 in 239 W/m2
15:04 58.1 °F 49.9 °F 30.08 in WSW 12.0 mph 19.0 mph 74 % 0.00 in 218 W/m2
15:09 57.9 °F 49.3 °F 30.09 in West 14.0 mph 21.0 mph 73 % 0.00 in 236 W/m2
15:14 58.3 °F 50.0 °F 30.09 in West 9.0 mph 15.0 mph 74 % 0.00 in 334 W/m2
15:19 58.5 °F 49.5 °F 30.09 in West 12.0 mph 22.0 mph 72 % 0.00 in 345 W/m2
15:24 58.6 °F 49.6 °F 30.08 in West 11.0 mph 16.0 mph 72 % 0.00 in 330 W/m2
15:29 58.8 °F 49.4 °F 30.08 in West 13.0 mph 19.0 mph 71 % 0.00 in 290 W/m2
15:34 59.2 °F 49.8 °F 30.08 in West 11.0 mph 22.0 mph 71 % 0.00 in 290 W/m2
15:39 59.2 °F 49.4 °F 30.08 in West 12.0 mph 20.0 mph 70 % 0.00 in 262 W/m2
15:44 59.2 °F 49.0 °F 30.09 in West 11.0 mph 21.0 mph 69 % 0.00 in 248 W/m2
15:49 59.2 °F 49.0 °F 30.08 in WNW 11.0 mph 18.0 mph 69 % 0.00 in 239 W/m2
15:56 59.2 °F 49.0 °F 30.08 in West 7.0 mph 16.0 mph 69 % 0.00 in 230 W/m2
16:01 59.2 °F 49.0 °F 30.09 in West 9.0 mph 14.0 mph 69 % 0.00 in 216 W/m2
16:06 59.2 °F 49.0 °F 30.09 in West 7.0 mph 11.0 mph 69 % 0.00 in 199 W/m2
16:11 58.8 °F 48.7 °F 30.09 in West 8.0 mph 12.0 mph 69 % 0.00 in 183 W/m2
16:16 58.6 °F 48.9 °F 30.10 in WNW 3.0 mph 8.0 mph 70 % 0.00 in 167 W/m2
16:21 58.5 °F 49.1 °F 30.09 in WNW 2.0 mph 7.0 mph 71 % 0.00 in 46 W/m2
16:26 58.3 °F 48.9 °F 30.10 in West 6.0 mph 9.0 mph 71 % 0.00 in 40 W/m2
16:31 58.3 °F 48.9 °F 30.10 in West 4.0 mph 10.0 mph 71 % 0.00 in 39 W/m2
16:36 58.1 °F 48.7 °F 30.10 in WSW 3.0 mph 6.0 mph 71 % 0.00 in 40 W/m2
16:41 57.9 °F 48.6 °F 30.10 in South 2.0 mph 5.0 mph 71 % 0.00 in 42 W/m2
16:46 57.9 °F 48.6 °F 30.10 in South 1.0 mph 2.0 mph 71 % 0.00 in 33 W/m2
17:05 57.2 °F 48.6 °F 30.11 in Calm     73 % 0.00 in 33 W/m2
17:10 57.0 °F 48.8 °F 30.11 in Calm     74 % 0.00 in 25 W/m2
17:15 56.7 °F 48.5 °F 30.11 in Calm     74 % 0.00 in 23 W/m2
17:20 56.3 °F 48.5 °F 30.11 in Calm     75 % 0.00 in 23 W/m2
17:25 55.9 °F 48.5 °F 30.11 in Calm     76 % 0.00 in 16 W/m2
17:30 55.6 °F 48.5 °F 30.12 in Calm   1.0 mph 77 % 0.00 in 18 W/m2
17:35 55.4 °F 48.3 °F 30.12 in Calm     77 % 0.00 in 18 W/m2
17:40 55.2 °F 48.8 °F 30.12 in Calm     79 % 0.00 in 9 W/m2
17:45 55.2 °F 48.8 °F 30.12 in Calm   2.0 mph 79 % 0.00 in 5 W/m2
17:50 55.2 °F 48.5 °F 30.12 in SSW 1.0 mph 4.0 mph 78 % 0.00 in 0 W/m2
17:55 55.2 °F 48.5 °F 30.12 in Calm     78 % 0.00 in 0 W/m2
18:00 55.2 °F 48.5 °F 30.12 in Calm     78 % 0.00 in 0 W/m2
18:05 55.2 °F 48.5 °F 30.13 in Calm     78 % 0.00 in 0 W/m2
18:10 55.0 °F 48.3 °F 30.13 in WSW 1.0 mph 5.0 mph 78 % 0.00 in 0 W/m2
18:11 55.0 °F 48.3 °F 30.13 in WSW 2.0 mph 5.0 mph 78 % 0.00 in 0 W/m2
18:16 55.0 °F 48.3 °F 30.13 in Calm   1.0 mph 78 % 0.00 in 0 W/m2
18:21 55.0 °F 48.6 °F 30.12 in WSW 1.0 mph 2.0 mph 79 % 0.00 in 0 W/m2
18:26 54.9 °F 48.5 °F 30.13 in WSW 2.0 mph 5.0 mph 79 % 0.00 in 0 W/m2
18:31 54.7 °F 48.3 °F 30.13 in SW 1.0 mph 3.0 mph 79 % 0.00 in 0 W/m2
18:36 54.5 °F 48.1 °F 30.13 in SW 1.0 mph 2.0 mph 79 % 0.00 in 0 W/m2
18:41 54.3 °F 48.3 °F 30.13 in WSW 2.0 mph 4.0 mph 80 % 0.00 in 0 W/m2
18:46 54.1 °F 48.1 °F 30.13 in WSW 1.0 mph 2.0 mph 80 % 0.00 in 0 W/m2
18:51 53.8 °F 48.1 °F 30.14 in WSW 1.0 mph 2.0 mph 81 % 0.00 in 0 W/m2
18:56 53.4 °F 47.7 °F 30.14 in WSW 1.0 mph 2.0 mph 81 % 0.00 in 0 W/m2
19:01 53.2 °F 47.9 °F 30.14 in Calm   1.0 mph 82 % 0.00 in 0 W/m2
19:06 53.1 °F 47.7 °F 30.14 in Calm   1.0 mph 82 % 0.00 in 0 W/m2
19:11 52.9 °F 47.5 °F 30.14 in Calm   1.0 mph 82 % 0.00 in 0 W/m2
19:13 52.7 °F 47.7 °F 30.15 in WSW 1.0 mph 3.0 mph 83 % 0.00 in 0 W/m2
19:18 52.5 °F 47.5 °F 30.15 in WSW 1.0 mph 2.0 mph 83 % 0.00 in 0 W/m2
19:23 52.3 °F 47.6 °F 30.15 in Calm   1.0 mph 84 % 0.00 in 0 W/m2
19:28 52.2 °F 47.5 °F 30.15 in WSW 1.0 mph 2.0 mph 84 % 0.00 in 0 W/m2
19:33 52.2 °F 47.5 °F 30.15 in Calm   1.0 mph 84 % 0.00 in 0 W/m2
19:39 52.0 °F 47.6 °F 30.15 in Calm     85 % 0.00 in 0 W/m2
19:44 51.8 °F 47.4 °F 30.15 in Calm     85 % 0.00 in 0 W/m2
19:49 51.6 °F 47.3 °F 30.15 in WSW 1.0 mph 4.0 mph 85 % 0.00 in 0 W/m2
19:54 51.6 °F 47.6 °F 30.15 in WSW 1.0 mph 4.0 mph 86 % 0.00 in 0 W/m2
19:59 51.6 °F 47.6 °F 30.16 in West 1.0 mph 3.0 mph 86 % 0.00 in 0 W/m2
20:04 51.6 °F 47.6 °F 30.15 in West 1.0 mph 2.0 mph 86 % 0.00 in 0 W/m2
20:09 51.6 °F 47.6 °F 30.15 in WSW 2.0 mph 5.0 mph 86 % 0.00 in 0 W/m2
20:14 51.6 °F 47.6 °F 30.15 in WSW 3.0 mph 6.0 mph 86 % 0.00 in 0 W/m2
20:19 51.8 °F 47.7 °F 30.15 in WSW 3.0 mph 7.0 mph 86 % 0.00 in 0 W/m2
20:24 52.0 °F 47.6 °F 30.15 in West 2.0 mph 5.0 mph 85 % 0.00 in 0 W/m2
20:29 52.0 °F 47.6 °F 30.15 in West 4.0 mph 6.0 mph 85 % 0.00 in 0 W/m2
20:30 52.0 °F 47.6 °F 30.15 in West 4.0 mph 6.0 mph 85 % 0.00 in 0 W/m2
20:35 52.0 °F 47.6 °F 30.15 in WSW 3.0 mph 6.0 mph 85 % 0.00 in 0 W/m2
20:40 52.0 °F 47.6 °F 30.15 in SW 3.0 mph 6.0 mph 85 % 0.00 in 0 W/m2
20:45 52.2 °F 47.5 °F 30.16 in WSW 5.0 mph 8.0 mph 84 % 0.00 in 0 W/m2
20:50 52.3 °F 47.6 °F 30.16 in WSW 5.0 mph 8.0 mph 84 % 0.00 in 0 W/m2
20:55 52.5 °F 47.8 °F 30.16 in WSW 6.0 mph 9.0 mph 84 % 0.00 in 0 W/m2
21:00 52.5 °F 47.8 °F 30.16 in WSW 6.0 mph 9.0 mph 84 % 0.00 in 0 W/m2
21:05 52.5 °F 47.8 °F 30.16 in West 5.0 mph 10.0 mph 84 % 0.00 in 0 W/m2
21:10 52.5 °F 47.8 °F 30.16 in West 5.0 mph 9.0 mph 84 % 0.00 in 0 W/m2
21:15 52.7 °F 48.0 °F 30.16 in WSW 5.0 mph 8.0 mph 84 % 0.00 in 0 W/m2
21:20 52.7 °F 48.0 °F 30.17 in West 4.0 mph 9.0 mph 84 % 0.00 in 0 W/m2
21:25 52.7 °F 48.0 °F 30.16 in West 4.0 mph 8.0 mph 84 % 0.00 in 0 W/m2
21:30 52.7 °F 48.0 °F 30.16 in West 3.0 mph 5.0 mph 84 % 0.00 in 0 W/m2
21:35 52.7 °F 48.0 °F 30.17 in West 2.0 mph 5.0 mph 84 % 0.00 in 0 W/m2
21:40 52.5 °F 47.8 °F 30.17 in Calm     84 % 0.00 in 0 W/m2
21:45 52.3 °F 47.6 °F 30.17 in Calm   1.0 mph 84 % 0.00 in 0 W/m2
21:50 52.2 °F 47.8 °F 30.17 in Calm     85 % 0.00 in 0 W/m2
21:55 51.8 °F 47.4 °F 30.17 in Calm   1.0 mph 85 % 0.00 in 0 W/m2
22:00 51.6 °F 47.6 °F 30.17 in Calm     86 % 0.00 in 0 W/m2
22:05 51.4 °F 47.4 °F 30.17 in Calm   1.0 mph 86 % 0.00 in 0 W/m2
22:10 51.3 °F 47.2 °F 30.17 in Calm   1.0 mph 86 % 0.00 in 0 W/m2
22:15 51.1 °F 47.3 °F 30.17 in Calm   1.0 mph 87 % 0.00 in 0 W/m2
22:20 50.7 °F 47.0 °F 30.17 in Calm   1.0 mph 87 % 0.00 in 0 W/m2
22:25 50.5 °F 46.8 °F 30.17 in East 1.0 mph 2.0 mph 87 % 0.00 in 0 W/m2
22:30 50.4 °F 46.6 °F 30.17 in East 1.0 mph 2.0 mph 87 % 0.00 in 0 W/m2
22:35 50.4 °F 46.9 °F 30.17 in East 1.0 mph 4.0 mph 88 % 0.00 in 0 W/m2
22:40 50.2 °F 46.8 °F 30.16 in East 1.0 mph 2.0 mph 88 % 0.00 in 0 W/m2
22:45 50.2 °F 47.1 °F 30.17 in Calm   1.0 mph 89 % 0.00 in 0 W/m2
22:50 50.2 °F 47.1 °F 30.17 in Calm   1.0 mph 89 % 0.00 in 0 W/m2
22:55 50.2 °F 47.1 °F 30.17 in Calm     89 % 0.00 in 0 W/m2
23:00 50.0 °F 46.9 °F 30.17 in Calm     89 % 0.00 in 0 W/m2
23:05 50.0 °F 46.9 °F 30.17 in Calm     89 % 0.00 in 0 W/m2
23:10 49.8 °F 46.7 °F 30.17 in Calm     89 % 0.00 in 0 W/m2
23:15 49.8 °F 46.7 °F 30.18 in Calm   1.0 mph 89 % 0.00 in 0 W/m2
23:20 49.8 °F 47.0 °F 30.18 in Calm   1.0 mph 90 % 0.00 in 0 W/m2
23:25 50.0 °F 47.2 °F 30.18 in Calm   1.0 mph 90 % 0.00 in 0 W/m2
23:30 50.2 °F 47.4 °F 30.18 in SW 1.0 mph 2.0 mph 90 % 0.00 in 0 W/m2
23:35 50.2 °F 47.4 °F 30.18 in Calm     90 % 0.00 in 0 W/m2
23:40 50.2 °F 47.4 °F 30.18 in Calm   2.0 mph 90 % 0.00 in 0 W/m2
23:45 50.2 °F 47.4 °F 30.18 in Calm   2.0 mph 90 % 0.00 in 0 W/m2
23:50 50.2 °F 47.4 °F 30.18 in West 1.0 mph 2.0 mph 90 % 0.00 in 0 W/m2
23:55 50.2 °F 47.4 °F 30.18 in West 1.0 mph 1.0 mph 90 % 0.00 in 0 W/m2
Delerius-Weather
Compliments of Weather Underground - 2.25 mb

Data updates at regular intervals.